sensor_id;sensor_type;location;lat;lon;timestamp;P1;durP1;ratioP1;P2;durP2;ratioP2
5085;SDS011;4715;51.660;7.082;2024-02-16T00:01:17;1.70;;;1.60;;
5085;SDS011;4715;51.660;7.082;2024-02-16T00:03:44;1.40;;;1.30;;
5085;SDS011;4715;51.660;7.082;2024-02-16T00:06:07;1.73;;;1.00;;
5085;SDS011;4715;51.660;7.082;2024-02-16T00:08:34;2.43;;;1.60;;
5085;SDS011;4715;51.660;7.082;2024-02-16T00:10:59;1.60;;;1.50;;
5085;SDS011;4715;51.660;7.082;2024-02-16T00:13:21;1.37;;;1.27;;
5085;SDS011;4715;51.660;7.082;2024-02-16T00:15:43;1.33;;;1.10;;
5085;SDS011;4715;51.660;7.082;2024-02-16T00:18:05;2.17;;;1.97;;
5085;SDS011;4715;51.660;7.082;2024-02-16T00:20:28;1.50;;;1.40;;
5085;SDS011;4715;51.660;7.082;2024-02-16T00:22:51;3.27;;;1.50;;
5085;SDS011;4715;51.660;7.082;2024-02-16T00:25:16;1.60;;;1.47;;
5085;SDS011;4715;51.660;7.082;2024-02-16T00:27:38;1.40;;;1.30;;
5085;SDS011;4715;51.660;7.082;2024-02-16T00:30:02;1.80;;;1.70;;
5085;SDS011;4715;51.660;7.082;2024-02-16T00:32:24;1.70;;;1.60;;
5085;SDS011;4715;51.660;7.082;2024-02-16T00:34:50;1.53;;;1.43;;
5085;SDS011;4715;51.660;7.082;2024-02-16T00:37:13;1.70;;;1.60;;
5085;SDS011;4715;51.660;7.082;2024-02-16T00:39:43;1.40;;;1.30;;
5085;SDS011;4715;51.660;7.082;2024-02-16T00:42:07;1.50;;;1.40;;
5085;SDS011;4715;51.660;7.082;2024-02-16T00:44:31;1.60;;;1.50;;
5085;SDS011;4715;51.660;7.082;2024-02-16T00:46:52;2.17;;;2.07;;
5085;SDS011;4715;51.660;7.082;2024-02-16T00:49:14;1.17;;;1.07;;
5085;SDS011;4715;51.660;7.082;2024-02-16T00:51:36;1.30;;;1.20;;
5085;SDS011;4715;51.660;7.082;2024-02-16T00:54:00;1.40;;;1.30;;
5085;SDS011;4715;51.660;7.082;2024-02-16T00:56:23;1.37;;;1.27;;
5085;SDS011;4715;51.660;7.082;2024-02-16T00:58:46;1.20;;;1.20;;
5085;SDS011;4715;51.660;7.082;2024-02-16T01:01:11;1.30;;;1.20;;
5085;SDS011;4715;51.660;7.082;2024-02-16T01:03:34;1.20;;;1.10;;
5085;SDS011;4715;51.660;7.082;2024-02-16T01:05:54;2.23;;;2.03;;
5085;SDS011;4715;51.660;7.082;2024-02-16T01:08:16;1.47;;;1.37;;
5085;SDS011;4715;51.660;7.082;2024-02-16T01:10:38;1.60;;;1.50;;
5085;SDS011;4715;51.660;7.082;2024-02-16T01:13:01;1.37;;;1.27;;
5085;SDS011;4715;51.660;7.082;2024-02-16T01:15:29;1.30;;;1.20;;
5085;SDS011;4715;51.660;7.082;2024-02-16T01:17:52;1.80;;;1.20;;
5085;SDS011;4715;51.660;7.082;2024-02-16T01:20:14;1.03;;;0.80;;
5085;SDS011;4715;51.660;7.082;2024-02-16T01:22:37;1.40;;;1.30;;
5085;SDS011;4715;51.660;7.082;2024-02-16T01:24:59;1.90;;;1.40;;
5085;SDS011;4715;51.660;7.082;2024-02-16T01:27:21;1.20;;;1.10;;
5085;SDS011;4715;51.660;7.082;2024-02-16T01:29:43;1.17;;;1.03;;
5085;SDS011;4715;51.660;7.082;2024-02-16T01:32:06;1.27;;;1.20;;
5085;SDS011;4715;51.660;7.082;2024-02-16T01:34:28;1.60;;;1.50;;
5085;SDS011;4715;51.660;7.082;2024-02-16T01:36:51;1.13;;;1.10;;
5085;SDS011;4715;51.660;7.082;2024-02-16T01:39:13;1.20;;;1.10;;
5085;SDS011;4715;51.660;7.082;2024-02-16T01:41:38;1.10;;;1.10;;
5085;SDS011;4715;51.660;7.082;2024-02-16T01:44:00;1.63;;;1.50;;
5085;SDS011;4715;51.660;7.082;2024-02-16T01:46:24;1.43;;;1.33;;
5085;SDS011;4715;51.660;7.082;2024-02-16T01:48:49;1.50;;;1.40;;
5085;SDS011;4715;51.660;7.082;2024-02-16T01:51:11;1.40;;;1.30;;
5085;SDS011;4715;51.660;7.082;2024-02-16T01:53:34;1.37;;;0.90;;
5085;SDS011;4715;51.660;7.082;2024-02-16T01:55:58;1.30;;;1.20;;
5085;SDS011;4715;51.660;7.082;2024-02-16T01:58:21;1.50;;;1.20;;
5085;SDS011;4715;51.660;7.082;2024-02-16T02:00:43;1.40;;;1.30;;
5085;SDS011;4715;51.660;7.082;2024-02-16T02:03:05;2.20;;;1.53;;
5085;SDS011;4715;51.660;7.082;2024-02-16T02:05:28;1.50;;;1.40;;
5085;SDS011;4715;51.660;7.082;2024-02-16T02:07:49;1.50;;;1.40;;
5085;SDS011;4715;51.660;7.082;2024-02-16T02:10:13;1.50;;;1.40;;
5085;SDS011;4715;51.660;7.082;2024-02-16T02:12:35;1.70;;;1.60;;
5085;SDS011;4715;51.660;7.082;2024-02-16T02:14:56;1.70;;;1.60;;
5085;SDS011;4715;51.660;7.082;2024-02-16T02:17:18;1.83;;;1.73;;
5085;SDS011;4715;51.660;7.082;2024-02-16T02:19:41;1.30;;;1.20;;
5085;SDS011;4715;51.660;7.082;2024-02-16T02:24:37;1.40;;;1.30;;
5085;SDS011;4715;51.660;7.082;2024-02-16T02:26:59;1.83;;;1.73;;
5085;SDS011;4715;51.660;7.082;2024-02-16T02:29:20;1.50;;;1.40;;
5085;SDS011;4715;51.660;7.082;2024-02-16T02:31:42;1.50;;;1.40;;
5085;SDS011;4715;51.660;7.082;2024-02-16T02:34:04;2.00;;;1.47;;
5085;SDS011;4715;51.660;7.082;2024-02-16T02:36:26;1.43;;;1.20;;
5085;SDS011;4715;51.660;7.082;2024-02-16T02:38:49;1.90;;;1.73;;
5085;SDS011;4715;51.660;7.082;2024-02-16T02:41:11;1.83;;;1.73;;
5085;SDS011;4715;51.660;7.082;2024-02-16T02:43:36;1.73;;;1.63;;
5085;SDS011;4715;51.660;7.082;2024-02-16T02:45:59;1.33;;;1.23;;
5085;SDS011;4715;51.660;7.082;2024-02-16T02:48:26;1.57;;;1.40;;
5085;SDS011;4715;51.660;7.082;2024-02-16T02:50:49;1.50;;;1.23;;
5085;SDS011;4715;51.660;7.082;2024-02-16T02:53:10;1.80;;;1.70;;
5085;SDS011;4715;51.660;7.082;2024-02-16T02:55:34;1.50;;;1.40;;
5085;SDS011;4715;51.660;7.082;2024-02-16T02:57:56;1.33;;;1.23;;
5085;SDS011;4715;51.660;7.082;2024-02-16T03:00:18;1.30;;;1.20;;
5085;SDS011;4715;51.660;7.082;2024-02-16T03:02:41;1.47;;;1.37;;
5085;SDS011;4715;51.660;7.082;2024-02-16T03:05:04;3.00;;;1.70;;
5085;SDS011;4715;51.660;7.082;2024-02-16T03:07:27;1.60;;;1.50;;
5085;SDS011;4715;51.660;7.082;2024-02-16T03:09:49;1.50;;;1.40;;
5085;SDS011;4715;51.660;7.082;2024-02-16T03:12:12;1.40;;;1.30;;
5085;SDS011;4715;51.660;7.082;2024-02-16T03:14:34;1.87;;;1.73;;
5085;SDS011;4715;51.660;7.082;2024-02-16T03:16:57;1.50;;;1.40;;
5085;SDS011;4715;51.660;7.082;2024-02-16T03:19:19;1.57;;;1.47;;
5085;SDS011;4715;51.660;7.082;2024-02-16T03:21:42;1.30;;;1.20;;
5085;SDS011;4715;51.660;7.082;2024-02-16T03:24:04;1.07;;;1.07;;
5085;SDS011;4715;51.660;7.082;2024-02-16T03:26:27;1.30;;;1.30;;
5085;SDS011;4715;51.660;7.082;2024-02-16T03:28:53;1.10;;;1.00;;
5085;SDS011;4715;51.660;7.082;2024-02-16T03:31:16;1.53;;;1.20;;
5085;SDS011;4715;51.660;7.082;2024-02-16T03:33:39;1.13;;;1.10;;
5085;SDS011;4715;51.660;7.082;2024-02-16T03:36:01;1.60;;;1.40;;
5085;SDS011;4715;51.660;7.082;2024-02-16T03:38:24;1.70;;;1.57;;
5085;SDS011;4715;51.660;7.082;2024-02-16T03:40:46;1.50;;;1.40;;
5085;SDS011;4715;51.660;7.082;2024-02-16T03:43:08;1.90;;;1.80;;
5085;SDS011;4715;51.660;7.082;2024-02-16T03:45:30;1.73;;;1.63;;
5085;SDS011;4715;51.660;7.082;2024-02-16T03:47:52;1.70;;;1.57;;
5085;SDS011;4715;51.660;7.082;2024-02-16T03:50:14;4.63;;;1.57;;
5085;SDS011;4715;51.660;7.082;2024-02-16T03:52:36;2.03;;;1.93;;
5085;SDS011;4715;51.660;7.082;2024-02-16T03:54:58;1.73;;;1.63;;
5085;SDS011;4715;51.660;7.082;2024-02-16T03:57:20;2.80;;;1.60;;
5085;SDS011;4715;51.660;7.082;2024-02-16T03:59:42;3.13;;;2.17;;
5085;SDS011;4715;51.660;7.082;2024-02-16T04:02:06;1.83;;;1.50;;
5085;SDS011;4715;51.660;7.082;2024-02-16T04:04:28;1.80;;;1.70;;
5085;SDS011;4715;51.660;7.082;2024-02-16T04:06:49;2.20;;;2.00;;
5085;SDS011;4715;51.660;7.082;2024-02-16T04:09:13;1.73;;;1.63;;
5085;SDS011;4715;51.660;7.082;2024-02-16T04:11:37;1.80;;;1.70;;
5085;SDS011;4715;51.660;7.082;2024-02-16T04:13:59;1.80;;;1.60;;
5085;SDS011;4715;51.660;7.082;2024-02-16T04:16:21;2.33;;;1.80;;
5085;SDS011;4715;51.660;7.082;2024-02-16T04:18:47;1.47;;;1.37;;
5085;SDS011;4715;51.660;7.082;2024-02-16T04:21:09;1.97;;;1.77;;
5085;SDS011;4715;51.660;7.082;2024-02-16T04:23:31;2.33;;;1.90;;
5085;SDS011;4715;51.660;7.082;2024-02-16T04:25:56;3.80;;;1.83;;
5085;SDS011;4715;51.660;7.082;2024-02-16T04:28:19;2.67;;;2.37;;
5085;SDS011;4715;51.660;7.082;2024-02-16T04:30:41;1.83;;;1.70;;
5085;SDS011;4715;51.660;7.082;2024-02-16T04:33:02;2.40;;;2.23;;
5085;SDS011;4715;51.660;7.082;2024-02-16T04:35:26;2.57;;;2.37;;
5085;SDS011;4715;51.660;7.082;2024-02-16T04:37:48;3.60;;;2.40;;
5085;SDS011;4715;51.660;7.082;2024-02-16T04:40:10;2.43;;;2.30;;
5085;SDS011;4715;51.660;7.082;2024-02-16T04:42:34;2.63;;;2.10;;
5085;SDS011;4715;51.660;7.082;2024-02-16T04:44:58;2.90;;;1.83;;
5085;SDS011;4715;51.660;7.082;2024-02-16T04:47:20;2.70;;;2.10;;
5085;SDS011;4715;51.660;7.082;2024-02-16T04:49:42;1.93;;;1.70;;
5085;SDS011;4715;51.660;7.082;2024-02-16T04:52:06;2.00;;;1.90;;
5085;SDS011;4715;51.660;7.082;2024-02-16T04:54:28;1.70;;;1.60;;
5085;SDS011;4715;51.660;7.082;2024-02-16T04:56:50;3.20;;;1.93;;
5085;SDS011;4715;51.660;7.082;2024-02-16T04:59:12;1.70;;;1.53;;
5085;SDS011;4715;51.660;7.082;2024-02-16T05:01:37;2.33;;;2.20;;
5085;SDS011;4715;51.660;7.082;2024-02-16T05:03:59;2.10;;;1.90;;
5085;SDS011;4715;51.660;7.082;2024-02-16T05:06:22;1.80;;;1.70;;
5085;SDS011;4715;51.660;7.082;2024-02-16T05:08:46;2.67;;;1.50;;
5085;SDS011;4715;51.660;7.082;2024-02-16T05:11:08;2.50;;;1.90;;
5085;SDS011;4715;51.660;7.082;2024-02-16T05:13:30;1.77;;;1.53;;
5085;SDS011;4715;51.660;7.082;2024-02-16T05:15:55;1.73;;;1.63;;
5085;SDS011;4715;51.660;7.082;2024-02-16T05:18:17;2.00;;;1.90;;
5085;SDS011;4715;51.660;7.082;2024-02-16T05:20:39;1.70;;;1.60;;
5085;SDS011;4715;51.660;7.082;2024-02-16T05:23:01;2.03;;;1.90;;
5085;SDS011;4715;51.660;7.082;2024-02-16T05:25:25;1.77;;;1.67;;
5085;SDS011;4715;51.660;7.082;2024-02-16T05:27:46;1.57;;;1.47;;
5085;SDS011;4715;51.660;7.082;2024-02-16T05:30:10;1.40;;;1.30;;
5085;SDS011;4715;51.660;7.082;2024-02-16T05:32:35;2.30;;;1.60;;
5085;SDS011;4715;51.660;7.082;2024-02-16T05:34:58;1.93;;;1.83;;
5085;SDS011;4715;51.660;7.082;2024-02-16T05:37:20;2.13;;;1.93;;
5085;SDS011;4715;51.660;7.082;2024-02-16T05:39:42;2.50;;;2.20;;
5085;SDS011;4715;51.660;7.082;2024-02-16T05:42:15;1.63;;;1.53;;
5085;SDS011;4715;51.660;7.082;2024-02-16T05:44:36;1.60;;;1.50;;
5085;SDS011;4715;51.660;7.082;2024-02-16T05:46:58;1.77;;;1.67;;
5085;SDS011;4715;51.660;7.082;2024-02-16T05:49:21;1.53;;;1.37;;
5085;SDS011;4715;51.660;7.082;2024-02-16T05:51:44;2.90;;;1.73;;
5085;SDS011;4715;51.660;7.082;2024-02-16T05:54:26;2.03;;;1.50;;
5085;SDS011;4715;51.660;7.082;2024-02-16T05:56:49;2.00;;;1.80;;
5085;SDS011;4715;51.660;7.082;2024-02-16T05:59:17;3.47;;;1.60;;
5085;SDS011;4715;51.660;7.082;2024-02-16T06:01:39;9.20;;;1.77;;
5085;SDS011;4715;51.660;7.082;2024-02-16T06:04:03;3.33;;;2.20;;
5085;SDS011;4715;51.660;7.082;2024-02-16T06:06:25;2.83;;;1.67;;
5085;SDS011;4715;51.660;7.082;2024-02-16T06:08:50;1.90;;;1.80;;
5085;SDS011;4715;51.660;7.082;2024-02-16T06:11:12;1.67;;;1.40;;
5085;SDS011;4715;51.660;7.082;2024-02-16T06:13:35;1.80;;;1.70;;
5085;SDS011;4715;51.660;7.082;2024-02-16T06:16:00;1.60;;;1.50;;
5085;SDS011;4715;51.660;7.082;2024-02-16T06:18:22;4.80;;;1.90;;
5085;SDS011;4715;51.660;7.082;2024-02-16T06:20:44;2.00;;;1.50;;
5085;SDS011;4715;51.660;7.082;2024-02-16T06:23:06;2.90;;;1.80;;
5085;SDS011;4715;51.660;7.082;2024-02-16T06:25:30;1.50;;;1.40;;
5085;SDS011;4715;51.660;7.082;2024-02-16T06:27:52;1.97;;;1.77;;
5085;SDS011;4715;51.660;7.082;2024-02-16T06:30:17;1.70;;;1.60;;
5085;SDS011;4715;51.660;7.082;2024-02-16T06:32:44;1.60;;;1.50;;
5085;SDS011;4715;51.660;7.082;2024-02-16T06:35:08;1.50;;;1.40;;
5085;SDS011;4715;51.660;7.082;2024-02-16T06:37:31;2.03;;;1.93;;
5085;SDS011;4715;51.660;7.082;2024-02-16T06:39:53;3.97;;;2.67;;
5085;SDS011;4715;51.660;7.082;2024-02-16T06:42:15;1.77;;;1.67;;
5085;SDS011;4715;51.660;7.082;2024-02-16T06:44:37;1.90;;;1.70;;
5085;SDS011;4715;51.660;7.082;2024-02-16T06:46:58;1.80;;;1.70;;
5085;SDS011;4715;51.660;7.082;2024-02-16T06:49:21;1.70;;;1.60;;
5085;SDS011;4715;51.660;7.082;2024-02-16T06:51:43;1.80;;;1.70;;
5085;SDS011;4715;51.660;7.082;2024-02-16T06:54:06;1.90;;;1.80;;
5085;SDS011;4715;51.660;7.082;2024-02-16T06:56:29;1.97;;;1.63;;
5085;SDS011;4715;51.660;7.082;2024-02-16T06:58:51;1.80;;;1.70;;
5085;SDS011;4715;51.660;7.082;2024-02-16T07:01:14;1.90;;;1.80;;
5085;SDS011;4715;51.660;7.082;2024-02-16T07:03:38;1.93;;;1.77;;
5085;SDS011;4715;51.660;7.082;2024-02-16T07:06:02;2.17;;;2.00;;
5085;SDS011;4715;51.660;7.082;2024-02-16T07:08:31;2.67;;;1.73;;
5085;SDS011;4715;51.660;7.082;2024-02-16T07:10:53;3.03;;;1.87;;
5085;SDS011;4715;51.660;7.082;2024-02-16T07:13:17;3.87;;;2.20;;
5085;SDS011;4715;51.660;7.082;2024-02-16T07:15:41;2.03;;;1.70;;
5085;SDS011;4715;51.660;7.082;2024-02-16T07:18:03;2.20;;;2.00;;
5085;SDS011;4715;51.660;7.082;2024-02-16T07:20:25;2.73;;;2.03;;
5085;SDS011;4715;51.660;7.082;2024-02-16T07:22:48;1.97;;;1.87;;
5085;SDS011;4715;51.660;7.082;2024-02-16T07:25:11;3.17;;;2.20;;
5085;SDS011;4715;51.660;7.082;2024-02-16T07:27:33;2.70;;;2.40;;
5085;SDS011;4715;51.660;7.082;2024-02-16T07:29:56;2.60;;;2.40;;
5085;SDS011;4715;51.660;7.082;2024-02-16T07:32:18;5.97;;;2.83;;
5085;SDS011;4715;51.660;7.082;2024-02-16T07:34:39;3.03;;;2.70;;
5085;SDS011;4715;51.660;7.082;2024-02-16T07:37:01;2.63;;;2.40;;
5085;SDS011;4715;51.660;7.082;2024-02-16T07:39:25;4.70;;;2.77;;
5085;SDS011;4715;51.660;7.082;2024-02-16T07:41:47;2.87;;;2.53;;
5085;SDS011;4715;51.660;7.082;2024-02-16T07:44:10;3.27;;;2.97;;
5085;SDS011;4715;51.660;7.082;2024-02-16T07:46:33;3.53;;;2.60;;
5085;SDS011;4715;51.660;7.082;2024-02-16T07:49:00;2.70;;;2.50;;
5085;SDS011;4715;51.660;7.082;2024-02-16T07:51:24;2.97;;;2.57;;
5085;SDS011;4715;51.660;7.082;2024-02-16T07:53:49;3.93;;;3.07;;
5085;SDS011;4715;51.660;7.082;2024-02-16T07:56:12;2.60;;;2.40;;
5085;SDS011;4715;51.660;7.082;2024-02-16T07:58:34;2.93;;;2.73;;
5085;SDS011;4715;51.660;7.082;2024-02-16T08:00:57;2.23;;;2.03;;
5085;SDS011;4715;51.660;7.082;2024-02-16T08:03:20;4.90;;;2.87;;
5085;SDS011;4715;51.660;7.082;2024-02-16T08:05:42;4.33;;;2.47;;
5085;SDS011;4715;51.660;7.082;2024-02-16T08:08:04;4.47;;;3.10;;
5085;SDS011;4715;51.660;7.082;2024-02-16T08:10:29;3.33;;;3.03;;
5085;SDS011;4715;51.660;7.082;2024-02-16T08:12:52;4.87;;;3.23;;
5085;SDS011;4715;51.660;7.082;2024-02-16T08:15:16;4.50;;;3.10;;
5085;SDS011;4715;51.660;7.082;2024-02-16T08:17:43;5.60;;;3.17;;
5085;SDS011;4715;51.660;7.082;2024-02-16T08:20:05;4.40;;;2.90;;
5085;SDS011;4715;51.660;7.082;2024-02-16T08:22:29;5.50;;;3.10;;
5085;SDS011;4715;51.660;7.082;2024-02-16T08:24:52;4.23;;;2.70;;
5085;SDS011;4715;51.660;7.082;2024-02-16T08:27:15;5.00;;;3.10;;
5085;SDS011;4715;51.660;7.082;2024-02-16T08:29:43;4.30;;;2.83;;
5085;SDS011;4715;51.660;7.082;2024-02-16T08:32:06;3.37;;;2.87;;
5085;SDS011;4715;51.660;7.082;2024-02-16T08:34:30;4.70;;;3.30;;
5085;SDS011;4715;51.660;7.082;2024-02-16T08:36:51;3.07;;;2.80;;
5085;SDS011;4715;51.660;7.082;2024-02-16T08:39:15;7.10;;;3.10;;
5085;SDS011;4715;51.660;7.082;2024-02-16T08:41:40;4.07;;;3.50;;
5085;SDS011;4715;51.660;7.082;2024-02-16T08:44:04;3.37;;;3.07;;
5085;SDS011;4715;51.660;7.082;2024-02-16T08:46:31;4.80;;;3.30;;
5085;SDS011;4715;51.660;7.082;2024-02-16T08:48:53;3.57;;;3.27;;
5085;SDS011;4715;51.660;7.082;2024-02-16T08:51:15;3.10;;;2.80;;
5085;SDS011;4715;51.660;7.082;2024-02-16T08:53:38;6.50;;;3.53;;
5085;SDS011;4715;51.660;7.082;2024-02-16T08:56:02;4.67;;;2.70;;
5085;SDS011;4715;51.660;7.082;2024-02-16T08:58:24;11.30;;;3.50;;
5085;SDS011;4715;51.660;7.082;2024-02-16T09:00:46;7.00;;;3.10;;
5085;SDS011;4715;51.660;7.082;2024-02-16T09:03:10;9.27;;;3.00;;
5085;SDS011;4715;51.660;7.082;2024-02-16T09:05:32;4.50;;;3.40;;
5085;SDS011;4715;51.660;7.082;2024-02-16T09:07:54;4.17;;;2.87;;
5085;SDS011;4715;51.660;7.082;2024-02-16T09:10:16;3.73;;;2.97;;
5085;SDS011;4715;51.660;7.082;2024-02-16T09:12:38;2.70;;;2.53;;
5085;SDS011;4715;51.660;7.082;2024-02-16T09:15:00;4.03;;;3.30;;
5085;SDS011;4715;51.660;7.082;2024-02-16T09:17:22;3.47;;;3.07;;
5085;SDS011;4715;51.660;7.082;2024-02-16T09:19:45;3.23;;;2.93;;
5085;SDS011;4715;51.660;7.082;2024-02-16T09:22:07;7.20;;;3.03;;
5085;SDS011;4715;51.660;7.082;2024-02-16T09:24:29;4.00;;;3.00;;
5085;SDS011;4715;51.660;7.082;2024-02-16T09:26:51;4.63;;;3.23;;
5085;SDS011;4715;51.660;7.082;2024-02-16T09:29:14;8.10;;;3.30;;
5085;SDS011;4715;51.660;7.082;2024-02-16T09:31:36;4.73;;;3.63;;
5085;SDS011;4715;51.660;7.082;2024-02-16T09:33:59;4.30;;;3.40;;
5085;SDS011;4715;51.660;7.082;2024-02-16T09:36:24;5.97;;;3.50;;
5085;SDS011;4715;51.660;7.082;2024-02-16T09:38:46;4.63;;;3.03;;
5085;SDS011;4715;51.660;7.082;2024-02-16T09:41:08;6.77;;;2.60;;
5085;SDS011;4715;51.660;7.082;2024-02-16T09:43:30;8.23;;;3.13;;
5085;SDS011;4715;51.660;7.082;2024-02-16T09:45:53;3.40;;;3.10;;
5085;SDS011;4715;51.660;7.082;2024-02-16T09:48:15;4.70;;;2.93;;
5085;SDS011;4715;51.660;7.082;2024-02-16T09:50:37;5.43;;;3.10;;
5085;SDS011;4715;51.660;7.082;2024-02-16T09:53:01;3.60;;;2.50;;
5085;SDS011;4715;51.660;7.082;2024-02-16T09:55:29;4.10;;;2.97;;
5085;SDS011;4715;51.660;7.082;2024-02-16T09:57:59;4.50;;;2.70;;
5085;SDS011;4715;51.660;7.082;2024-02-16T10:00:25;7.50;;;2.90;;
5085;SDS011;4715;51.660;7.082;2024-02-16T10:02:48;6.20;;;3.10;;
5085;SDS011;4715;51.660;7.082;2024-02-16T10:05:13;4.10;;;3.70;;
5085;SDS011;4715;51.660;7.082;2024-02-16T10:07:38;3.20;;;2.90;;
5085;SDS011;4715;51.660;7.082;2024-02-16T10:10:02;8.13;;;3.20;;
5085;SDS011;4715;51.660;7.082;2024-02-16T10:12:24;3.07;;;2.50;;
5085;SDS011;4715;51.660;7.082;2024-02-16T10:14:53;6.03;;;2.87;;
5085;SDS011;4715;51.660;7.082;2024-02-16T10:17:20;3.40;;;2.77;;
5085;SDS011;4715;51.660;7.082;2024-02-16T10:19:43;5.93;;;3.10;;
5085;SDS011;4715;51.660;7.082;2024-02-16T10:22:08;4.93;;;3.43;;
5085;SDS011;4715;51.660;7.082;2024-02-16T10:24:33;9.03;;;3.83;;
5085;SDS011;4715;51.660;7.082;2024-02-16T10:26:57;4.97;;;3.30;;
5085;SDS011;4715;51.660;7.082;2024-02-16T10:29:19;6.03;;;2.93;;
5085;SDS011;4715;51.660;7.082;2024-02-16T10:31:42;4.17;;;2.70;;
5085;SDS011;4715;51.660;7.082;2024-02-16T10:34:06;3.33;;;3.13;;
5085;SDS011;4715;51.660;7.082;2024-02-16T10:36:29;4.53;;;3.07;;
5085;SDS011;4715;51.660;7.082;2024-02-16T10:38:53;6.33;;;3.30;;
5085;SDS011;4715;51.660;7.082;2024-02-16T10:41:17;8.77;;;4.10;;
5085;SDS011;4715;51.660;7.082;2024-02-16T10:43:47;3.53;;;3.20;;
5085;SDS011;4715;51.660;7.082;2024-02-16T10:46:12;6.03;;;2.67;;
5085;SDS011;4715;51.660;7.082;2024-02-16T10:48:35;5.43;;;2.90;;
5085;SDS011;4715;51.660;7.082;2024-02-16T10:50:57;5.60;;;3.63;;
5085;SDS011;4715;51.660;7.082;2024-02-16T10:53:21;3.90;;;3.10;;
5085;SDS011;4715;51.660;7.082;2024-02-16T10:55:52;7.87;;;3.20;;
5085;SDS011;4715;51.660;7.082;2024-02-16T10:58:14;3.53;;;3.20;;
5085;SDS011;4715;51.660;7.082;2024-02-16T11:00:49;5.40;;;3.10;;
5085;SDS011;4715;51.660;7.082;2024-02-16T11:03:16;3.40;;;2.77;;
5085;SDS011;4715;51.660;7.082;2024-02-16T11:05:48;6.50;;;3.50;;
5085;SDS011;4715;51.660;7.082;2024-02-16T11:08:11;4.83;;;3.40;;
5085;SDS011;4715;51.660;7.082;2024-02-16T11:10:36;3.70;;;3.37;;
5085;SDS011;4715;51.660;7.082;2024-02-16T11:13:01;3.87;;;3.10;;
5085;SDS011;4715;51.660;7.082;2024-02-16T11:15:27;6.13;;;3.70;;
5085;SDS011;4715;51.660;7.082;2024-02-16T11:17:51;6.20;;;3.40;;
5085;SDS011;4715;51.660;7.082;2024-02-16T11:20:13;3.50;;;2.90;;
5085;SDS011;4715;51.660;7.082;2024-02-16T11:22:36;6.90;;;4.37;;
5085;SDS011;4715;51.660;7.082;2024-02-16T11:24:59;6.20;;;3.83;;
5085;SDS011;4715;51.660;7.082;2024-02-16T11:27:23;6.93;;;3.27;;
5085;SDS011;4715;51.660;7.082;2024-02-16T11:29:47;8.50;;;3.90;;
5085;SDS011;4715;51.660;7.082;2024-02-16T11:32:10;6.50;;;4.33;;
5085;SDS011;4715;51.660;7.082;2024-02-16T11:34:34;5.17;;;4.50;;
5085;SDS011;4715;51.660;7.082;2024-02-16T11:36:58;4.07;;;3.70;;
5085;SDS011;4715;51.660;7.082;2024-02-16T11:39:21;5.63;;;3.77;;
5085;SDS011;4715;51.660;7.082;2024-02-16T11:41:43;5.33;;;4.70;;
5085;SDS011;4715;51.660;7.082;2024-02-16T11:44:05;5.50;;;4.70;;
5085;SDS011;4715;51.660;7.082;2024-02-16T11:46:27;5.70;;;3.87;;
5085;SDS011;4715;51.660;7.082;2024-02-16T11:48:49;7.60;;;4.03;;
5085;SDS011;4715;51.660;7.082;2024-02-16T11:51:14;5.33;;;4.47;;
5085;SDS011;4715;51.660;7.082;2024-02-16T11:53:38;9.97;;;5.40;;
5085;SDS011;4715;51.660;7.082;2024-02-16T11:56:00;6.40;;;4.60;;
5085;SDS011;4715;51.660;7.082;2024-02-16T11:58:21;8.47;;;4.87;;
5085;SDS011;4715;51.660;7.082;2024-02-16T12:00:44;8.40;;;4.20;;
5085;SDS011;4715;51.660;7.082;2024-02-16T12:03:07;8.83;;;4.90;;
5085;SDS011;4715;51.660;7.082;2024-02-16T12:05:28;7.77;;;3.93;;
5085;SDS011;4715;51.660;7.082;2024-02-16T12:07:54;7.03;;;3.90;;
5085;SDS011;4715;51.660;7.082;2024-02-16T12:10:19;7.90;;;4.60;;
5085;SDS011;4715;51.660;7.082;2024-02-16T12:12:47;5.30;;;4.13;;
5085;SDS011;4715;51.660;7.082;2024-02-16T12:15:09;9.47;;;4.70;;
5085;SDS011;4715;51.660;7.082;2024-02-16T12:17:33;7.87;;;4.50;;
5085;SDS011;4715;51.660;7.082;2024-02-16T12:19:55;7.43;;;5.33;;
5085;SDS011;4715;51.660;7.082;2024-02-16T12:22:17;8.77;;;5.60;;
5085;SDS011;4715;51.660;7.082;2024-02-16T12:24:41;8.23;;;6.43;;
5085;SDS011;4715;51.660;7.082;2024-02-16T12:27:03;6.00;;;5.40;;
5085;SDS011;4715;51.660;7.082;2024-02-16T12:29:25;13.20;;;5.43;;
5085;SDS011;4715;51.660;7.082;2024-02-16T12:31:47;8.13;;;6.37;;
5085;SDS011;4715;51.660;7.082;2024-02-16T12:34:11;8.27;;;6.13;;
5085;SDS011;4715;51.660;7.082;2024-02-16T12:36:35;10.63;;;7.37;;
5085;SDS011;4715;51.660;7.082;2024-02-16T12:38:58;16.10;;;8.60;;
5085;SDS011;4715;51.660;7.082;2024-02-16T12:41:27;13.83;;;7.40;;
5085;SDS011;4715;51.660;7.082;2024-02-16T12:43:50;8.47;;;6.53;;
5085;SDS011;4715;51.660;7.082;2024-02-16T12:46:13;15.97;;;8.87;;
5085;SDS011;4715;51.660;7.082;2024-02-16T12:48:38;8.63;;;6.80;;
5085;SDS011;4715;51.660;7.082;2024-02-16T12:50:59;15.97;;;7.50;;
5085;SDS011;4715;51.660;7.082;2024-02-16T12:53:21;7.97;;;7.10;;
5085;SDS011;4715;51.660;7.082;2024-02-16T12:55:45;9.53;;;7.73;;
5085;SDS011;4715;51.660;7.082;2024-02-16T12:58:12;17.33;;;8.30;;
5085;SDS011;4715;51.660;7.082;2024-02-16T13:00:34;15.10;;;8.07;;
5085;SDS011;4715;51.660;7.082;2024-02-16T13:02:56;13.23;;;8.43;;
5085;SDS011;4715;51.660;7.082;2024-02-16T13:05:18;9.80;;;7.73;;
5085;SDS011;4715;51.660;7.082;2024-02-16T13:07:39;8.80;;;7.70;;
5085;SDS011;4715;51.660;7.082;2024-02-16T13:10:01;9.10;;;6.60;;
5085;SDS011;4715;51.660;7.082;2024-02-16T13:12:25;7.53;;;5.93;;
5085;SDS011;4715;51.660;7.082;2024-02-16T13:14:49;7.63;;;5.50;;
5085;SDS011;4715;51.660;7.082;2024-02-16T13:17:13;8.97;;;5.60;;
5085;SDS011;4715;51.660;7.082;2024-02-16T13:19:35;8.80;;;5.13;;
5085;SDS011;4715;51.660;7.082;2024-02-16T13:21:57;9.07;;;5.77;;
5085;SDS011;4715;51.660;7.082;2024-02-16T13:24:19;5.83;;;5.13;;
5085;SDS011;4715;51.660;7.082;2024-02-16T13:26:41;10.70;;;4.93;;
5085;SDS011;4715;51.660;7.082;2024-02-16T13:29:03;6.43;;;5.30;;
5085;SDS011;4715;51.660;7.082;2024-02-16T13:31:26;13.00;;;5.90;;
5085;SDS011;4715;51.660;7.082;2024-02-16T13:33:48;9.43;;;5.33;;
5085;SDS011;4715;51.660;7.082;2024-02-16T13:36:10;7.20;;;5.20;;
5085;SDS011;4715;51.660;7.082;2024-02-16T13:38:32;8.27;;;5.40;;
5085;SDS011;4715;51.660;7.082;2024-02-16T13:40:54;7.77;;;4.90;;
5085;SDS011;4715;51.660;7.082;2024-02-16T13:43:16;7.27;;;5.47;;
5085;SDS011;4715;51.660;7.082;2024-02-16T13:45:49;9.70;;;6.00;;
5085;SDS011;4715;51.660;7.082;2024-02-16T13:48:13;9.60;;;6.30;;
5085;SDS011;4715;51.660;7.082;2024-02-16T13:50:35;9.17;;;5.90;;
5085;SDS011;4715;51.660;7.082;2024-02-16T13:52:58;7.30;;;5.77;;
5085;SDS011;4715;51.660;7.082;2024-02-16T13:55:21;7.07;;;5.73;;
5085;SDS011;4715;51.660;7.082;2024-02-16T13:57:42;11.83;;;6.23;;
5085;SDS011;4715;51.660;7.082;2024-02-16T14:00:05;8.47;;;6.37;;
5085;SDS011;4715;51.660;7.082;2024-02-16T14:02:27;7.33;;;5.73;;
5085;SDS011;4715;51.660;7.082;2024-02-16T14:04:50;13.67;;;6.83;;
5085;SDS011;4715;51.660;7.082;2024-02-16T14:07:13;7.27;;;5.97;;
5085;SDS011;4715;51.660;7.082;2024-02-16T14:09:36;9.27;;;7.53;;
5085;SDS011;4715;51.660;7.082;2024-02-16T14:11:58;9.83;;;6.87;;
5085;SDS011;4715;51.660;7.082;2024-02-16T14:14:20;11.27;;;6.60;;
5085;SDS011;4715;51.660;7.082;2024-02-16T14:16:44;8.50;;;6.13;;
5085;SDS011;4715;51.660;7.082;2024-02-16T14:19:05;9.57;;;6.43;;
5085;SDS011;4715;51.660;7.082;2024-02-16T14:21:30;10.53;;;6.70;;
5085;SDS011;4715;51.660;7.082;2024-02-16T14:23:52;6.80;;;6.20;;
5085;SDS011;4715;51.660;7.082;2024-02-16T14:26:14;7.00;;;6.30;;
5085;SDS011;4715;51.660;7.082;2024-02-16T14:28:37;10.83;;;6.30;;
5085;SDS011;4715;51.660;7.082;2024-02-16T14:30:59;6.67;;;5.77;;
5085;SDS011;4715;51.660;7.082;2024-02-16T14:33:21;7.37;;;6.67;;
5085;SDS011;4715;51.660;7.082;2024-02-16T14:35:43;9.20;;;6.20;;
5085;SDS011;4715;51.660;7.082;2024-02-16T14:38:07;7.43;;;6.33;;
5085;SDS011;4715;51.660;7.082;2024-02-16T14:40:30;7.50;;;6.73;;
5085;SDS011;4715;51.660;7.082;2024-02-16T14:42:53;9.30;;;6.50;;
5085;SDS011;4715;51.660;7.082;2024-02-16T14:45:15;12.80;;;7.80;;
5085;SDS011;4715;51.660;7.082;2024-02-16T14:47:41;6.57;;;5.80;;
5085;SDS011;4715;51.660;7.082;2024-02-16T14:50:03;8.70;;;6.00;;
5085;SDS011;4715;51.660;7.082;2024-02-16T14:52:28;10.83;;;7.20;;